sensor_id;sensor_type;location;lat;lon;timestamp;temperature;humidity
2603;DHT22;1311;47.966;7.958;2024-03-22T00:02:08;9.70;99.90
2603;DHT22;1311;47.966;7.958;2024-03-22T00:04:34;9.70;99.90
2603;DHT22;1311;47.966;7.958;2024-03-22T00:07:01;9.60;99.90
2603;DHT22;1311;47.966;7.958;2024-03-22T00:09:27;9.60;99.90
2603;DHT22;1311;47.966;7.958;2024-03-22T00:11:53;9.50;99.90
2603;DHT22;1311;47.966;7.958;2024-03-22T00:14:19;9.50;99.90
2603;DHT22;1311;47.966;7.958;2024-03-22T00:16:47;9.40;99.90
2603;DHT22;1311;47.966;7.958;2024-03-22T00:19:14;9.50;99.90
2603;DHT22;1311;47.966;7.958;2024-03-22T00:21:40;9.40;99.90
2603;DHT22;1311;47.966;7.958;2024-03-22T00:24:06;9.40;99.90
2603;DHT22;1311;47.966;7.958;2024-03-22T00:26:33;9.40;99.90
2603;DHT22;1311;47.966;7.958;2024-03-22T00:28:59;9.40;99.90
2603;DHT22;1311;47.966;7.958;2024-03-22T00:31:25;9.40;99.90
2603;DHT22;1311;47.966;7.958;2024-03-22T00:33:53;9.40;99.90
2603;DHT22;1311;47.966;7.958;2024-03-22T00:36:19;9.40;99.90
2603;DHT22;1311;47.966;7.958;2024-03-22T00:38:46;9.40;99.90
2603;DHT22;1311;47.966;7.958;2024-03-22T00:41:13;9.40;99.90
2603;DHT22;1311;47.966;7.958;2024-03-22T00:43:39;9.40;99.90
2603;DHT22;1311;47.966;7.958;2024-03-22T00:46:05;9.40;99.90
2603;DHT22;1311;47.966;7.958;2024-03-22T00:48:31;9.40;99.90
2603;DHT22;1311;47.966;7.958;2024-03-22T00:50:59;9.30;99.90
2603;DHT22;1311;47.966;7.958;2024-03-22T00:53:25;9.30;99.90
2603;DHT22;1311;47.966;7.958;2024-03-22T00:55:53;9.20;99.90
2603;DHT22;1311;47.966;7.958;2024-03-22T00:58:19;9.10;99.90
2603;DHT22;1311;47.966;7.958;2024-03-22T01:00:46;9.10;99.90
2603;DHT22;1311;47.966;7.958;2024-03-22T01:03:12;9.00;99.90
2603;DHT22;1311;47.966;7.958;2024-03-22T01:05:39;9.00;99.90
2603;DHT22;1311;47.966;7.958;2024-03-22T01:08:07;9.00;99.90
2603;DHT22;1311;47.966;7.958;2024-03-22T01:10:34;9.00;99.90
2603;DHT22;1311;47.966;7.958;2024-03-22T01:13:00;9.00;99.90
2603;DHT22;1311;47.966;7.958;2024-03-22T01:15:27;9.00;99.90
2603;DHT22;1311;47.966;7.958;2024-03-22T01:17:52;9.00;99.90
2603;DHT22;1311;47.966;7.958;2024-03-22T01:20:19;9.00;99.90
2603;DHT22;1311;47.966;7.958;2024-03-22T01:22:45;8.90;99.90
2603;DHT22;1311;47.966;7.958;2024-03-22T01:25:13;8.90;99.90
2603;DHT22;1311;47.966;7.958;2024-03-22T01:27:39;8.90;99.90
2603;DHT22;1311;47.966;7.958;2024-03-22T01:30:07;8.80;99.90
2603;DHT22;1311;47.966;7.958;2024-03-22T01:32:34;8.80;99.90
2603;DHT22;1311;47.966;7.958;2024-03-22T01:35:00;8.90;99.90
2603;DHT22;1311;47.966;7.958;2024-03-22T01:37:26;9.00;99.90
2603;DHT22;1311;47.966;7.958;2024-03-22T01:39:53;9.10;99.90
2603;DHT22;1311;47.966;7.958;2024-03-22T01:42:20;9.10;99.90
2603;DHT22;1311;47.966;7.958;2024-03-22T01:44:49;9.00;99.90
2603;DHT22;1311;47.966;7.958;2024-03-22T01:47:15;9.00;99.90
2603;DHT22;1311;47.966;7.958;2024-03-22T01:49:42;9.00;99.90
2603;DHT22;1311;47.966;7.958;2024-03-22T01:52:08;9.00;99.90
2603;DHT22;1311;47.966;7.958;2024-03-22T01:54:35;9.00;99.90
2603;DHT22;1311;47.966;7.958;2024-03-22T01:57:01;9.00;99.90
2603;DHT22;1311;47.966;7.958;2024-03-22T01:59:30;8.90;99.90
2603;DHT22;1311;47.966;7.958;2024-03-22T02:01:56;8.90;99.90
2603;DHT22;1311;47.966;7.958;2024-03-22T02:04:22;8.90;99.90
2603;DHT22;1311;47.966;7.958;2024-03-22T02:06:48;8.80;99.90
2603;DHT22;1311;47.966;7.958;2024-03-22T02:09:15;8.70;99.90
2603;DHT22;1311;47.966;7.958;2024-03-22T02:11:41;8.70;99.90
2603;DHT22;1311;47.966;7.958;2024-03-22T02:14:09;8.70;99.90
2603;DHT22;1311;47.966;7.958;2024-03-22T02:16:36;8.60;99.90
2603;DHT22;1311;47.966;7.958;2024-03-22T02:19:02;8.60;99.90
2603;DHT22;1311;47.966;7.958;2024-03-22T02:24:36;8.50;99.90
2603;DHT22;1311;47.966;7.958;2024-03-22T02:27:02;8.50;99.90
2603;DHT22;1311;47.966;7.958;2024-03-22T02:29:29;8.50;99.90
2603;DHT22;1311;47.966;7.958;2024-03-22T02:31:55;8.50;99.90
2603;DHT22;1311;47.966;7.958;2024-03-22T02:34:23;8.60;99.90
2603;DHT22;1311;47.966;7.958;2024-03-22T02:36:49;8.60;99.90
2603;DHT22;1311;47.966;7.958;2024-03-22T02:39:16;8.70;99.90
2603;DHT22;1311;47.966;7.958;2024-03-22T02:41:43;8.60;99.90
2603;DHT22;1311;47.966;7.958;2024-03-22T02:44:10;8.70;99.90
2603;DHT22;1311;47.966;7.958;2024-03-22T02:46:35;8.70;99.90
2603;DHT22;1311;47.966;7.958;2024-03-22T02:49:02;8.70;99.90
2603;DHT22;1311;47.966;7.958;2024-03-22T02:51:28;8.70;99.90
2603;DHT22;1311;47.966;7.958;2024-03-22T02:53:54;8.80;99.90
2603;DHT22;1311;47.966;7.958;2024-03-22T02:56:20;8.80;99.90
2603;DHT22;1311;47.966;7.958;2024-03-22T02:58:49;8.80;99.90
2603;DHT22;1311;47.966;7.958;2024-03-22T03:01:15;8.80;99.90
2603;DHT22;1311;47.966;7.958;2024-03-22T03:03:41;8.80;99.90
2603;DHT22;1311;47.966;7.958;2024-03-22T03:06:07;8.80;99.90
2603;DHT22;1311;47.966;7.958;2024-03-22T03:08:34;8.90;99.90
2603;DHT22;1311;47.966;7.958;2024-03-22T03:11:00;8.90;99.90
2603;DHT22;1311;47.966;7.958;2024-03-22T03:13:27;8.80;99.90
2603;DHT22;1311;47.966;7.958;2024-03-22T03:15:56;8.80;99.90
2603;DHT22;1311;47.966;7.958;2024-03-22T03:18:23;8.80;99.90
2603;DHT22;1311;47.966;7.958;2024-03-22T03:20:49;8.90;99.90
2603;DHT22;1311;47.966;7.958;2024-03-22T03:23:16;8.90;99.90
2603;DHT22;1311;47.966;7.958;2024-03-22T03:25:42;8.90;99.90
2603;DHT22;1311;47.966;7.958;2024-03-22T03:28:08;8.90;99.90
2603;DHT22;1311;47.966;7.958;2024-03-22T03:30:34;8.80;99.90
2603;DHT22;1311;47.966;7.958;2024-03-22T03:33:03;8.80;99.90
2603;DHT22;1311;47.966;7.958;2024-03-22T03:35:28;8.80;99.90
2603;DHT22;1311;47.966;7.958;2024-03-22T03:37:55;8.80;99.90
2603;DHT22;1311;47.966;7.958;2024-03-22T03:40:21;8.80;99.90
2603;DHT22;1311;47.966;7.958;2024-03-22T03:42:50;8.80;99.90
2603;DHT22;1311;47.966;7.958;2024-03-22T03:45:15;8.80;99.90
2603;DHT22;1311;47.966;7.958;2024-03-22T03:47:42;8.90;99.90
2603;DHT22;1311;47.966;7.958;2024-03-22T03:50:09;8.90;99.90
2603;DHT22;1311;47.966;7.958;2024-03-22T03:52:36;8.90;99.90
2603;DHT22;1311;47.966;7.958;2024-03-22T03:55:02;9.00;99.90
2603;DHT22;1311;47.966;7.958;2024-03-22T03:57:29;9.00;99.90
2603;DHT22;1311;47.966;7.958;2024-03-22T03:59:55;8.90;99.90
2603;DHT22;1311;47.966;7.958;2024-03-22T04:02:21;8.90;99.90
2603;DHT22;1311;47.966;7.958;2024-03-22T04:04:47;8.90;99.90
2603;DHT22;1311;47.966;7.958;2024-03-22T04:07:15;8.90;99.90
2603;DHT22;1311;47.966;7.958;2024-03-22T04:09:41;8.90;99.90
2603;DHT22;1311;47.966;7.958;2024-03-22T04:12:07;8.90;99.90
2603;DHT22;1311;47.966;7.958;2024-03-22T04:14:33;8.90;99.90
2603;DHT22;1311;47.966;7.958;2024-03-22T04:17:00;8.90;99.90
2603;DHT22;1311;47.966;7.958;2024-03-22T04:19:26;9.00;99.90
2603;DHT22;1311;47.966;7.958;2024-03-22T04:21:52;9.00;99.90
2603;DHT22;1311;47.966;7.958;2024-03-22T04:24:20;9.00;99.90
2603;DHT22;1311;47.966;7.958;2024-03-22T04:26:46;9.00;99.90
2603;DHT22;1311;47.966;7.958;2024-03-22T04:29:12;9.00;99.90
2603;DHT22;1311;47.966;7.958;2024-03-22T04:31:39;9.10;99.90
2603;DHT22;1311;47.966;7.958;2024-03-22T04:34:04;9.10;99.90
2603;DHT22;1311;47.966;7.958;2024-03-22T04:36:32;9.10;99.90
2603;DHT22;1311;47.966;7.958;2024-03-22T04:38:58;9.00;99.90
2603;DHT22;1311;47.966;7.958;2024-03-22T04:41:26;9.00;99.90
2603;DHT22;1311;47.966;7.958;2024-03-22T04:43:53;9.00;99.90
2603;DHT22;1311;47.966;7.958;2024-03-22T04:46:20;9.00;99.90
2603;DHT22;1311;47.966;7.958;2024-03-22T04:48:47;9.00;99.90
2603;DHT22;1311;47.966;7.958;2024-03-22T04:51:12;9.00;99.90
2603;DHT22;1311;47.966;7.958;2024-03-22T04:53:39;9.00;99.90
2603;DHT22;1311;47.966;7.958;2024-03-22T04:56:05;9.00;99.90
2603;DHT22;1311;47.966;7.958;2024-03-22T04:58:35;9.00;99.90
2603;DHT22;1311;47.966;7.958;2024-03-22T05:01:01;9.00;99.90
2603;DHT22;1311;47.966;7.958;2024-03-22T05:03:27;9.00;99.90
2603;DHT22;1311;47.966;7.958;2024-03-22T05:05:53;9.00;99.90
2603;DHT22;1311;47.966;7.958;2024-03-22T05:08:20;9.10;99.90
2603;DHT22;1311;47.966;7.958;2024-03-22T05:10:46;9.00;99.90
2603;DHT22;1311;47.966;7.958;2024-03-22T05:13:13;9.10;99.90
2603;DHT22;1311;47.966;7.958;2024-03-22T05:15:41;9.00;99.90
2603;DHT22;1311;47.966;7.958;2024-03-22T05:18:07;9.00;99.90
2603;DHT22;1311;47.966;7.958;2024-03-22T05:20:33;9.00;99.90
2603;DHT22;1311;47.966;7.958;2024-03-22T05:23:00;9.10;99.90
2603;DHT22;1311;47.966;7.958;2024-03-22T05:25:25;9.10;99.90
2603;DHT22;1311;47.966;7.958;2024-03-22T05:27:52;9.10;99.90
2603;DHT22;1311;47.966;7.958;2024-03-22T05:30:18;9.10;99.90
2603;DHT22;1311;47.966;7.958;2024-03-22T05:32:46;9.10;99.90
2603;DHT22;1311;47.966;7.958;2024-03-22T05:35:12;9.10;99.90
2603;DHT22;1311;47.966;7.958;2024-03-22T05:37:39;9.10;99.90
2603;DHT22;1311;47.966;7.958;2024-03-22T05:40:06;9.10;99.90
2603;DHT22;1311;47.966;7.958;2024-03-22T05:42:34;9.10;99.90
2603;DHT22;1311;47.966;7.958;2024-03-22T05:45:00;9.20;99.90
2603;DHT22;1311;47.966;7.958;2024-03-22T05:47:27;9.20;99.90
2603;DHT22;1311;47.966;7.958;2024-03-22T05:49:54;9.20;99.90
2603;DHT22;1311;47.966;7.958;2024-03-22T05:52:20;9.20;99.90
2603;DHT22;1311;47.966;7.958;2024-03-22T05:54:46;9.30;99.90
2603;DHT22;1311;47.966;7.958;2024-03-22T05:57:13;9.30;99.90
2603;DHT22;1311;47.966;7.958;2024-03-22T05:59:40;9.40;99.90
2603;DHT22;1311;47.966;7.958;2024-03-22T06:02:07;9.40;99.90
2603;DHT22;1311;47.966;7.958;2024-03-22T06:04:33;9.40;99.90
2603;DHT22;1311;47.966;7.958;2024-03-22T06:07:01;9.40;99.90
2603;DHT22;1311;47.966;7.958;2024-03-22T06:09:29;9.40;99.90
2603;DHT22;1311;47.966;7.958;2024-03-22T06:12:03;9.40;99.90
2603;DHT22;1311;47.966;7.958;2024-03-22T06:14:29;9.40;99.90
2603;DHT22;1311;47.966;7.958;2024-03-22T06:16:56;9.40;99.90
2603;DHT22;1311;47.966;7.958;2024-03-22T06:19:21;9.40;99.90
2603;DHT22;1311;47.966;7.958;2024-03-22T06:21:48;9.50;99.90
2603;DHT22;1311;47.966;7.958;2024-03-22T06:24:15;9.50;99.90
2603;DHT22;1311;47.966;7.958;2024-03-22T06:26:42;9.50;99.90
2603;DHT22;1311;47.966;7.958;2024-03-22T06:29:08;9.60;99.90
2603;DHT22;1311;47.966;7.958;2024-03-22T06:31:35;9.70;99.90
2603;DHT22;1311;47.966;7.958;2024-03-22T06:34:00;9.70;99.90
2603;DHT22;1311;47.966;7.958;2024-03-22T06:36:28;9.60;99.90
2603;DHT22;1311;47.966;7.958;2024-03-22T06:38:54;9.60;99.90
2603;DHT22;1311;47.966;7.958;2024-03-22T06:41:22;9.70;99.90
2603;DHT22;1311;47.966;7.958;2024-03-22T06:43:48;9.70;99.90
2603;DHT22;1311;47.966;7.958;2024-03-22T06:46:15;9.70;99.90
2603;DHT22;1311;47.966;7.958;2024-03-22T06:48:41;9.60;99.90
2603;DHT22;1311;47.966;7.958;2024-03-22T06:51:07;9.70;99.90
2603;DHT22;1311;47.966;7.958;2024-03-22T06:53:33;9.70;99.90
2603;DHT22;1311;47.966;7.958;2024-03-22T06:56:00;9.70;99.90
2603;DHT22;1311;47.966;7.958;2024-03-22T06:58:27;9.70;99.90
2603;DHT22;1311;47.966;7.958;2024-03-22T07:00:54;9.70;99.90
2603;DHT22;1311;47.966;7.958;2024-03-22T07:03:20;9.70;99.90
2603;DHT22;1311;47.966;7.958;2024-03-22T07:05:47;9.70;99.90
2603;DHT22;1311;47.966;7.958;2024-03-22T07:08:13;9.80;99.90
2603;DHT22;1311;47.966;7.958;2024-03-22T07:10:40;10.00;99.90
2603;DHT22;1311;47.966;7.958;2024-03-22T07:13:05;10.10;99.90
2603;DHT22;1311;47.966;7.958;2024-03-22T07:15:34;10.20;99.90
2603;DHT22;1311;47.966;7.958;2024-03-22T07:18:00;10.20;99.90
2603;DHT22;1311;47.966;7.958;2024-03-22T07:20:27;10.30;99.90
2603;DHT22;1311;47.966;7.958;2024-03-22T07:22:53;10.40;99.90
2603;DHT22;1311;47.966;7.958;2024-03-22T07:25:20;10.50;99.90
2603;DHT22;1311;47.966;7.958;2024-03-22T07:27:46;10.60;99.90
2603;DHT22;1311;47.966;7.958;2024-03-22T07:30:14;10.70;99.90
2603;DHT22;1311;47.966;7.958;2024-03-22T07:32:42;10.80;99.90
2603;DHT22;1311;47.966;7.958;2024-03-22T07:35:08;11.00;99.90
2603;DHT22;1311;47.966;7.958;2024-03-22T07:37:34;11.10;99.90
2603;DHT22;1311;47.966;7.958;2024-03-22T07:40:01;11.20;99.90
2603;DHT22;1311;47.966;7.958;2024-03-22T07:42:27;11.30;99.90
2603;DHT22;1311;47.966;7.958;2024-03-22T07:44:54;11.40;99.90
2603;DHT22;1311;47.966;7.958;2024-03-22T07:47:19;11.50;99.90
2603;DHT22;1311;47.966;7.958;2024-03-22T07:49:47;11.50;99.90
2603;DHT22;1311;47.966;7.958;2024-03-22T07:52:13;11.60;99.90
2603;DHT22;1311;47.966;7.958;2024-03-22T07:54:40;11.70;99.90
2603;DHT22;1311;47.966;7.958;2024-03-22T07:57:06;11.90;99.90
2603;DHT22;1311;47.966;7.958;2024-03-22T07:59:33;12.00;99.90
2603;DHT22;1311;47.966;7.958;2024-03-22T08:01:59;12.10;99.90
2603;DHT22;1311;47.966;7.958;2024-03-22T08:04:25;12.20;99.90
2603;DHT22;1311;47.966;7.958;2024-03-22T08:06:53;12.30;99.90
2603;DHT22;1311;47.966;7.958;2024-03-22T08:09:19;12.30;99.90
2603;DHT22;1311;47.966;7.958;2024-03-22T08:11:45;12.40;99.90
2603;DHT22;1311;47.966;7.958;2024-03-22T08:14:13;12.50;99.90
2603;DHT22;1311;47.966;7.958;2024-03-22T08:16:39;12.70;99.90
2603;DHT22;1311;47.966;7.958;2024-03-22T08:19:06;12.80;99.90
2603;DHT22;1311;47.966;7.958;2024-03-22T08:21:32;13.00;99.90
2603;DHT22;1311;47.966;7.958;2024-03-22T08:23:59;13.10;99.90
2603;DHT22;1311;47.966;7.958;2024-03-22T08:26:26;13.20;99.90
2603;DHT22;1311;47.966;7.958;2024-03-22T08:28:52;13.30;99.90
2603;DHT22;1311;47.966;7.958;2024-03-22T08:31:19;13.40;99.90
2603;DHT22;1311;47.966;7.958;2024-03-22T08:33:51;13.50;99.90
2603;DHT22;1311;47.966;7.958;2024-03-22T08:36:17;13.60;99.90
2603;DHT22;1311;47.966;7.958;2024-03-22T08:38:43;13.80;99.90
2603;DHT22;1311;47.966;7.958;2024-03-22T08:41:11;13.90;99.90
2603;DHT22;1311;47.966;7.958;2024-03-22T08:43:37;13.90;99.90
2603;DHT22;1311;47.966;7.958;2024-03-22T08:46:04;14.10;99.90
2603;DHT22;1311;47.966;7.958;2024-03-22T08:48:30;14.20;99.90
2603;DHT22;1311;47.966;7.958;2024-03-22T08:50:57;14.20;99.90
2603;DHT22;1311;47.966;7.958;2024-03-22T08:53:23;14.30;99.90
2603;DHT22;1311;47.966;7.958;2024-03-22T08:55:50;14.20;99.90
2603;DHT22;1311;47.966;7.958;2024-03-22T08:58:17;14.20;99.90
2603;DHT22;1311;47.966;7.958;2024-03-22T09:00:44;14.30;99.90
2603;DHT22;1311;47.966;7.958;2024-03-22T09:03:10;14.40;99.90
2603;DHT22;1311;47.966;7.958;2024-03-22T09:05:37;14.60;99.90
2603;DHT22;1311;47.966;7.958;2024-03-22T09:08:04;14.70;99.90
2603;DHT22;1311;47.966;7.958;2024-03-22T09:10:30;14.80;94.20
2603;DHT22;1311;47.966;7.958;2024-03-22T09:12:56;14.90;36.70
2603;DHT22;1311;47.966;7.958;2024-03-22T09:15:24;15.10;36.90
2603;DHT22;1311;47.966;7.958;2024-03-22T09:17:51;15.00;1.00
2603;DHT22;1311;47.966;7.958;2024-03-22T09:20:18;15.10;1.00
2603;DHT22;1311;47.966;7.958;2024-03-22T09:22:44;15.20;1.00
2603;DHT22;1311;47.966;7.958;2024-03-22T09:25:11;15.40;1.00
2603;DHT22;1311;47.966;7.958;2024-03-22T09:27:37;15.40;99.90
2603;DHT22;1311;47.966;7.958;2024-03-22T09:30:05;15.40;1.00
2603;DHT22;1311;47.966;7.958;2024-03-22T09:32:32;15.50;99.90
2603;DHT22;1311;47.966;7.958;2024-03-22T09:34:59;15.60;99.90
2603;DHT22;1311;47.966;7.958;2024-03-22T09:37:26;15.80;1.00
2603;DHT22;1311;47.966;7.958;2024-03-22T09:39:52;16.00;1.00
2603;DHT22;1311;47.966;7.958;2024-03-22T09:42:22;16.00;99.90
2603;DHT22;1311;47.966;7.958;2024-03-22T09:44:49;16.00;1.00
2603;DHT22;1311;47.966;7.958;2024-03-22T09:47:17;16.20;1.00
2603;DHT22;1311;47.966;7.958;2024-03-22T09:49:44;16.50;1.00
2603;DHT22;1311;47.966;7.958;2024-03-22T09:52:14;16.70;1.00
2603;DHT22;1311;47.966;7.958;2024-03-22T09:54:44;16.70;70.00
2603;DHT22;1311;47.966;7.958;2024-03-22T09:57:25;16.80;1.00
2603;DHT22;1311;47.966;7.958;2024-03-22T09:59:52;16.60;99.90
2603;DHT22;1311;47.966;7.958;2024-03-22T10:02:21;16.50;99.90
2603;DHT22;1311;47.966;7.958;2024-03-22T10:04:50;16.50;99.90
2603;DHT22;1311;47.966;7.958;2024-03-22T10:07:18;16.50;99.90
2603;DHT22;1311;47.966;7.958;2024-03-22T10:09:45;16.50;81.30
2603;DHT22;1311;47.966;7.958;2024-03-22T10:12:12;16.40;21.10
2603;DHT22;1311;47.966;7.958;2024-03-22T10:14:38;16.40;10.90
2603;DHT22;1311;47.966;7.958;2024-03-22T10:17:07;16.30;16.40
2603;DHT22;1311;47.966;7.958;2024-03-22T10:19:34;16.50;38.40
2603;DHT22;1311;47.966;7.958;2024-03-22T10:22:01;16.70;42.00
2603;DHT22;1311;47.966;7.958;2024-03-22T10:24:29;16.70;55.50
2603;DHT22;1311;47.966;7.958;2024-03-22T10:26:55;16.90;92.20
2603;DHT22;1311;47.966;7.958;2024-03-22T10:29:23;16.90;9.20
2603;DHT22;1311;47.966;7.958;2024-03-22T10:31:50;16.80;46.70
2603;DHT22;1311;47.966;7.958;2024-03-22T10:34:18;17.00;34.40
2603;DHT22;1311;47.966;7.958;2024-03-22T10:36:46;17.10;15.80
2603;DHT22;1311;47.966;7.958;2024-03-22T10:39:16;17.20;1.00
2603;DHT22;1311;47.966;7.958;2024-03-22T10:41:42;17.20;1.00
2603;DHT22;1311;47.966;7.958;2024-03-22T10:44:09;17.30;1.00
2603;DHT22;1311;47.966;7.958;2024-03-22T10:46:35;17.50;1.00
2603;DHT22;1311;47.966;7.958;2024-03-22T10:49:02;17.60;1.00
2603;DHT22;1311;47.966;7.958;2024-03-22T10:51:30;17.60;1.00
2603;DHT22;1311;47.966;7.958;2024-03-22T10:53:58;17.60;1.00
2603;DHT22;1311;47.966;7.958;2024-03-22T10:56:27;17.80;1.00
2603;DHT22;1311;47.966;7.958;2024-03-22T10:58:54;18.10;1.00
2603;DHT22;1311;47.966;7.958;2024-03-22T11:01:23;18.30;1.00
2603;DHT22;1311;47.966;7.958;2024-03-22T11:03:50;18.20;1.00
2603;DHT22;1311;47.966;7.958;2024-03-22T11:06:19;18.50;1.00
2603;DHT22;1311;47.966;7.958;2024-03-22T11:08:50;18.70;1.00
2603;DHT22;1311;47.966;7.958;2024-03-22T11:11:18;18.50;1.00
2603;DHT22;1311;47.966;7.958;2024-03-22T11:13:48;18.50;1.00
2603;DHT22;1311;47.966;7.958;2024-03-22T11:16:14;18.50;1.00
2603;DHT22;1311;47.966;7.958;2024-03-22T11:18:42;18.40;99.90
2603;DHT22;1311;47.966;7.958;2024-03-22T11:21:08;18.30;99.90
2603;DHT22;1311;47.966;7.958;2024-03-22T11:23:35;18.40;99.90
2603;DHT22;1311;47.966;7.958;2024-03-22T11:26:02;18.60;99.90
2603;DHT22;1311;47.966;7.958;2024-03-22T11:28:29;18.70;99.90
2603;DHT22;1311;47.966;7.958;2024-03-22T11:30:57;18.60;99.90
2603;DHT22;1311;47.966;7.958;2024-03-22T11:33:23;18.60;99.90
2603;DHT22;1311;47.966;7.958;2024-03-22T11:35:49;18.60;53.90
2603;DHT22;1311;47.966;7.958;2024-03-22T11:38:16;18.80;63.30
2603;DHT22;1311;47.966;7.958;2024-03-22T11:40:46;18.70;67.80
2603;DHT22;1311;47.966;7.958;2024-03-22T11:43:15;18.50;38.10
2603;DHT22;1311;47.966;7.958;2024-03-22T11:45:42;18.60;12.60
2603;DHT22;1311;47.966;7.958;2024-03-22T11:48:10;18.30;1.00
2603;DHT22;1311;47.966;7.958;2024-03-22T11:50:37;18.30;1.00
2603;DHT22;1311;47.966;7.958;2024-03-22T11:53:05;18.30;5.50
2603;DHT22;1311;47.966;7.958;2024-03-22T11:55:31;18.50;1.00
2603;DHT22;1311;47.966;7.958;2024-03-22T11:57:58;18.80;1.00
2603;DHT22;1311;47.966;7.958;2024-03-22T12:00:24;18.70;1.00
2603;DHT22;1311;47.966;7.958;2024-03-22T12:02:56;18.80;1.00
2603;DHT22;1311;47.966;7.958;2024-03-22T12:05:30;19.00;1.00
2603;DHT22;1311;47.966;7.958;2024-03-22T12:07:57;19.00;1.00
2603;DHT22;1311;47.966;7.958;2024-03-22T12:10:23;18.90;1.00
2603;DHT22;1311;47.966;7.958;2024-03-22T12:12:50;18.90;1.00
2603;DHT22;1311;47.966;7.958;2024-03-22T12:15:15;19.10;1.00
2603;DHT22;1311;47.966;7.958;2024-03-22T12:17:42;19.20;1.00
2603;DHT22;1311;47.966;7.958;2024-03-22T12:20:09;19.20;1.00
2603;DHT22;1311;47.966;7.958;2024-03-22T12:22:41;19.30;1.00
2603;DHT22;1311;47.966;7.958;2024-03-22T12:25:08;19.30;1.00
2603;DHT22;1311;47.966;7.958;2024-03-22T12:27:35;19.40;1.00
2603;DHT22;1311;47.966;7.958;2024-03-22T12:30:01;19.40;1.00
2603;DHT22;1311;47.966;7.958;2024-03-22T12:32:27;19.50;1.00
2603;DHT22;1311;47.966;7.958;2024-03-22T12:34:54;19.50;1.00
2603;DHT22;1311;47.966;7.958;2024-03-22T12:37:21;19.70;1.00
2603;DHT22;1311;47.966;7.958;2024-03-22T12:39:48;19.80;1.00
2603;DHT22;1311;47.966;7.958;2024-03-22T12:42:15;19.90;1.00
2603;DHT22;1311;47.966;7.958;2024-03-22T12:44:41;19.90;1.00
2603;DHT22;1311;47.966;7.958;2024-03-22T12:47:07;20.00;1.00
2603;DHT22;1311;47.966;7.958;2024-03-22T12:49:34;19.90;1.00
2603;DHT22;1311;47.966;7.958;2024-03-22T12:52:00;19.70;99.90
2603;DHT22;1311;47.966;7.958;2024-03-22T12:54:26;19.90;99.90
2603;DHT22;1311;47.966;7.958;2024-03-22T12:56:54;20.20;99.90
2603;DHT22;1311;47.966;7.958;2024-03-22T12:59:20;20.40;99.90
2603;DHT22;1311;47.966;7.958;2024-03-22T13:01:47;20.60;99.90
2603;DHT22;1311;47.966;7.958;2024-03-22T13:04:13;20.80;99.90
2603;DHT22;1311;47.966;7.958;2024-03-22T13:06:40;20.80;99.90
2603;DHT22;1311;47.966;7.958;2024-03-22T13:09:05;20.70;99.90
2603;DHT22;1311;47.966;7.958;2024-03-22T13:11:35;20.80;99.90
2603;DHT22;1311;47.966;7.958;2024-03-22T13:14:02;20.50;99.90
2603;DHT22;1311;47.966;7.958;2024-03-22T13:16:34;20.70;99.90
2603;DHT22;1311;47.966;7.958;2024-03-22T13:19:01;20.80;99.90
2603;DHT22;1311;47.966;7.958;2024-03-22T13:21:27;20.80;99.90
2603;DHT22;1311;47.966;7.958;2024-03-22T13:23:53;20.80;99.90
2603;DHT22;1311;47.966;7.958;2024-03-22T13:26:23;20.80;99.90
2603;DHT22;1311;47.966;7.958;2024-03-22T13:28:50;20.60;99.90
2603;DHT22;1311;47.966;7.958;2024-03-22T13:31:25;20.50;99.90
2603;DHT22;1311;47.966;7.958;2024-03-22T13:33:53;20.20;99.90
2603;DHT22;1311;47.966;7.958;2024-03-22T13:36:21;20.50;99.90
2603;DHT22;1311;47.966;7.958;2024-03-22T13:38:46;20.60;99.90
2603;DHT22;1311;47.966;7.958;2024-03-22T13:41:13;20.70;99.90
2603;DHT22;1311;47.966;7.958;2024-03-22T13:43:39;20.70;99.90
2603;DHT22;1311;47.966;7.958;2024-03-22T13:46:08;20.70;99.90
2603;DHT22;1311;47.966;7.958;2024-03-22T13:48:35;20.40;99.90
2603;DHT22;1311;47.966;7.958;2024-03-22T13:51:02;20.30;99.90
2603;DHT22;1311;47.966;7.958;2024-03-22T13:53:28;20.20;99.90
2603;DHT22;1311;47.966;7.958;2024-03-22T13:55:55;20.60;99.90
2603;DHT22;1311;47.966;7.958;2024-03-22T13:58:22;20.60;99.90
2603;DHT22;1311;47.966;7.958;2024-03-22T14:00:49;20.50;99.90
2603;DHT22;1311;47.966;7.958;2024-03-22T14:03:15;20.30;99.90
2603;DHT22;1311;47.966;7.958;2024-03-22T14:05:43;20.20;99.90
2603;DHT22;1311;47.966;7.958;2024-03-22T14:08:08;20.10;99.90
2603;DHT22;1311;47.966;7.958;2024-03-22T14:10:35;20.00;99.90
2603;DHT22;1311;47.966;7.958;2024-03-22T14:13:01;20.00;99.90
2603;DHT22;1311;47.966;7.958;2024-03-22T14:15:29;20.30;99.90
2603;DHT22;1311;47.966;7.958;2024-03-22T14:17:57;20.20;99.90
2603;DHT22;1311;47.966;7.958;2024-03-22T14:20:24;20.20;99.90
2603;DHT22;1311;47.966;7.958;2024-03-22T14:22:51;20.30;99.90
2603;DHT22;1311;47.966;7.958;2024-03-22T14:25:18;20.30;99.90
2603;DHT22;1311;47.966;7.958;2024-03-22T14:27:44;20.20;99.90
2603;DHT22;1311;47.966;7.958;2024-03-22T14:30:12;20.20;99.90
2603;DHT22;1311;47.966;7.958;2024-03-22T14:32:39;20.40;99.90
2603;DHT22;1311;47.966;7.958;2024-03-22T14:35:06;20.60;99.90
2603;DHT22;1311;47.966;7.958;2024-03-22T14:37:32;20.30;99.90
2603;DHT22;1311;47.966;7.958;2024-03-22T14:40:00;20.40;99.90
2603;DHT22;1311;47.966;7.958;2024-03-22T14:42:26;20.70;99.90
2603;DHT22;1311;47.966;7.958;2024-03-22T14:44:53;20.70;99.90
2603;DHT22;1311;47.966;7.958;2024-03-22T14:47:21;20.70;99.90
2603;DHT22;1311;47.966;7.958;2024-03-22T14:49:49;20.70;99.90
2603;DHT22;1311;47.966;7.958;2024-03-22T14:52:14;20.50;99.90
2603;DHT22;1311;47.966;7.958;2024-03-22T14:54:41;20.50;99.90
2603;DHT22;1311;47.966;7.958;2024-03-22T14:57:08;20.80;99.90
2603;DHT22;1311;47.966;7.958;2024-03-22T14:59:36;20.80;99.90
2603;DHT22;1311;47.966;7.958;2024-03-22T15:02:02;20.90;99.90
2603;DHT22;1311;47.966;7.958;2024-03-22T15:04:28;20.90;99.90
2603;DHT22;1311;47.966;7.958;2024-03-22T15:06:54;21.00;99.90
2603;DHT22;1311;47.966;7.958;2024-03-22T15:09:21;20.80;99.90
2603;DHT22;1311;47.966;7.958;2024-03-22T15:11:49;20.70;99.90
2603;DHT22;1311;47.966;7.958;2024-03-22T15:14:17;20.60;99.90
2603;DHT22;1311;47.966;7.958;2024-03-22T15:16:43;20.60;99.90
2603;DHT22;1311;47.966;7.958;2024-03-22T15:19:10;20.60;99.90
2603;DHT22;1311;47.966;7.958;2024-03-22T15:21:36;20.60;99.90
2603;DHT22;1311;47.966;7.958;2024-03-22T15:24:03;20.60;99.90
2603;DHT22;1311;47.966;7.958;2024-03-22T15:26:29;20.60;99.90
2603;DHT22;1311;47.966;7.958;2024-03-22T15:28:56;20.50;99.90
2603;DHT22;1311;47.966;7.958;2024-03-22T15:31:23;20.60;99.90
2603;DHT22;1311;47.966;7.958;2024-03-22T15:33:50;20.50;99.90
2603;DHT22;1311;47.966;7.958;2024-03-22T15:36:17;20.40;99.90
2603;DHT22;1311;47.966;7.958;2024-03-22T15:38:44;20.40;99.90
2603;DHT22;1311;47.966;7.958;2024-03-22T15:41:11;20.40;99.90
2603;DHT22;1311;47.966;7.958;2024-03-22T15:43:37;20.20;99.90
2603;DHT22;1311;47.966;7.958;2024-03-22T15:46:03;20.20;99.90
2603;DHT22;1311;47.966;7.958;2024-03-22T15:48:31;20.10;99.90
2603;DHT22;1311;47.966;7.958;2024-03-22T15:50:57;20.00;99.90
2603;DHT22;1311;47.966;7.958;2024-03-22T15:53:24;19.90;99.90
2603;DHT22;1311;47.966;7.958;2024-03-22T15:55:50;19.70;99.90
2603;DHT22;1311;47.966;7.958;2024-03-22T15:58:20;19.50;99.90
2603;DHT22;1311;47.966;7.958;2024-03-22T16:00:46;19.40;99.90
2603;DHT22;1311;47.966;7.958;2024-03-22T16:03:15;19.20;99.90
2603;DHT22;1311;47.966;7.958;2024-03-22T16:05:50;19.20;99.90
2603;DHT22;1311;47.966;7.958;2024-03-22T16:08:19;19.10;99.90
2603;DHT22;1311;47.966;7.958;2024-03-22T16:10:45;19.10;99.90
2603;DHT22;1311;47.966;7.958;2024-03-22T16:13:12;19.00;99.90